Nearby METAR Reports

 

KMQS - Coatesville, Pennsylvania, USA
Distance from station: ENE 6mi, 10km
Updated: Thu, 17-Jan-2019 10:15am EST
Clear
Clear
 Wind from ENE
Wind: ENE 5 mph , 7 km/h, Gust: 12 mph , 19 km/h
Temperature: 27°F , -3°C
Wind Chill: 21°F , -6°C
Dew Point: 14°F , -10°C
Humidity: 59%
Barometer: 30.39 inHg , 1029.1 hPa
Clouds: Clear
Visibility: 10 miles , 16 km
2019/01/17 15:15 KMQS 171515Z AUTO 06004G10KT 10SM CLR M03/M10 A3039 RMK AO2
KLNS - Lancaster, Pennsylvania, USA
Distance from station: NW 21mi, 33km
Updated: Thu, 17-Jan-2019 9:53am EST
Clear
Clear
 Wind from E
Wind: E 7 mph , 11 km/h
Temperature: 28°F , -2°C
Wind Chill: 21°F , -6°C
Dew Point: 16°F , -9°C
Humidity: 59%
Barometer: 30.39 inHg , 1029.1 hPa
Clouds: Clear
Visibility: 10 miles , 16 km
2019/01/17 14:53 KLNS 171453Z 08006KT 10SM CLR M02/M09 A3039 RMK AO2 SLP295 T10221094 51013
 
KILG - Wilmington, Delaware, USA
Distance from station: SE 28mi, 45km
Updated: Thu, 17-Jan-2019 9:51am EST
Clear
Clear
 Wind from NNE
Wind: NNE 9 mph , 15 km/h
Temperature: 30°F , -1°C
Wind Chill: 22°F , -6°C
Dew Point: 16°F , -9°C
Humidity: 55%
Barometer: 30.41 inHg , 1029.8 hPa
Clouds: Clear
Visibility: 10 miles , 16 km
2019/01/17 14:51 KILG 171451Z 03008KT 10SM CLR M01/M09 A3041 RMK AO2 SLP299 T10061089 51016
KRDG - Reading, Pennsylvania, USA
Distance from station: N 29mi, 47km
Updated: Thu, 17-Jan-2019 9:54am EST
Clear
Clear
 Wind from NNE
Wind: NNE 6 mph , 9 km/h
Temperature: 27°F , -3°C
Wind Chill: 20°F , -7°C
Dew Point: 10°F , -12°C
Humidity: 50%
Barometer: 30.39 inHg , 1029.1 hPa
Clouds: Clear
Visibility: 10 miles , 16 km
2019/01/17 14:54 KRDG 171454Z 03005KT 10SM CLR M03/M12 A3039 RMK AO2 SLP301 T10331117 51011
 
KPTW - Pottstown, Pennsylvania, USA
Distance from station: NE 30mi, 48km
Updated: Thu, 17-Jan-2019 9:54am EST
Clear
Clear
 Wind from NE
Wind: NE 6 mph , 9 km/h
Temperature: 27°F , -3°C
Wind Chill: 20°F , -7°C
Dew Point: 10°F , -12°C
Humidity: 50%
Barometer: 30.41 inHg , 1029.8 hPa
Clouds: Clear
Visibility: 9 miles , 14 km
2019/01/17 14:54 KPTW 171454Z AUTO 05005KT 9SM CLR M03/M12 A3041 RMK AO2 SLP300 T10331117 51013 TSNO